Weather observations for the past three days for
Minocqua/Woodruff, Lakeland Airport/Noble F. Lee Memorial Field
Metric (Imperial)
Date Time (cdt) Wind (kph) Vis. (km) Weather Sky Cond. Temperature (ºC) Relative Humidity Wind Chill (°C) Heat Index (°C) Pressure Precipitation (cm)
Air Dwpt 6 hour altimeter (cm) sea level (mb) 1 hr 3 hr 6 hr
Max. Min.
06 03:15 Calm 16.09 Fair CLR 17 16 94% 76.56 0.0
06 02:55 Calm 16.09 Partly Cloudy SCT049 17 16 94% 76.58 0.0
06 02:35 Calm 16.09 Mostly Cloudy BKN047 17 17 100% 76.58 0.0
06 02:15 Calm 16.09 Overcast OVC043 17 17 100% 76.58 0.0
06 01:55 Calm 16.09 Mostly Cloudy BKN043 17 16 94% 76.58 0.0
06 01:35 Calm 16.09 Fair CLR 18 16 88% 76.56 0.0
06 01:15 Calm 16.09 Fair CLR 18 16 88% 76.56 0.0
06 00:55 Calm 16.09 Fair CLR 17 16 94% 76.56 0.0
06 00:35 Calm 16.09 Fair CLR 17 16 94% 76.56 0.0
06 00:15 Calm 16.09 Fair CLR 17 16 94% 76.56 0.0
05 23:55 Calm 16.09 Fair CLR 17 16 94% 76.53 0.0
05 23:35 Calm 16.09 Fair CLR 17 16 94% 76.5 0.0
05 23:15 Calm 16.09 Fair CLR 17 15 88% 76.5 0.0
05 22:55 Calm 16.09 Fair CLR 18 16 88% 76.45 0.0
05 22:35 Calm 16.09 Fair CLR 18 16 88% 76.48 0.0
05 22:15 Calm 16.09 Fair CLR 18 15 83% 76.48 0.0
05 21:55 Calm 16.09 Fair CLR 20 16 78% 76.45 0.0
05 21:35 Calm 16.09 Fair CLR 20 16 78% 76.45 0.0
05 21:15 Calm 16.09 Fair CLR 21 15 69% 76.43 0.0
05 20:55 SE 6 16.09 Fair CLR 21 15 69% 76.43 0.0
05 20:35 Calm 16.09 Partly Cloudy SCT050 21 16 73% 76.43 0.0
05 20:15 Calm 16.09 Partly Cloudy SCT050 22 15 65% 76.43 0.0
05 19:55 Calm 16.09 Partly Cloudy SCT050 23 15 61% 76.4 0.0
05 19:35 Calm 16.09 Partly Cloudy SCT055 23 15 61% 76.38 0.0
05 19:15 Calm 16.09 Partly Cloudy SCT055 25 15 54% 26 76.35 0.0
05 18:55 SE 7 16.09 Partly Cloudy SCT055 25 15 54% 26 76.35 0.0
05 18:35 E 7 16.09 Fair CLR 26 15 51% 27 76.35 0.0
05 18:15 Calm 16.09 Partly Cloudy SCT050 26 14 48% 26 76.38 0.0
05 17:55 Calm 16.09 Partly Cloudy SCT050 26 15 51% 27 76.35 0.0
05 17:35 S 7 16.09 Mostly Cloudy BKN060 26 15 51% 27 76.35 0.0
05 17:15 Calm 16.09 Fair CLR 26 15 51% 27 76.35 0.0
05 16:55 S 7 16.09 Partly Cloudy SCT055 26 15 51% 27 76.35 0.0
05 16:35 W 7 16.09 Mostly Cloudy BKN055 26 15 51% 27 76.38 0.0
05 16:15 W 6 16.09 Partly Cloudy SCT055 26 15 51% 27 76.4 0.0
05 15:55 Calm 16.09 Fair CLR 25 15 54% 26 76.4 0.0
05 15:35 Calm 16.09 Partly Cloudy SCT046 25 15 54% 26 76.43 0.0
05 15:15 NE 7 16.09 Mostly Cloudy BKN046 25 15 54% 26 76.4 0.0
05 14:55 Calm 16.09 Mostly Cloudy BKN044 25 15 54% 26 76.4 0.0
05 12:55 S 6 16.09 Fair CLR 25 15 54% 26 76.45 0.0
05 12:35 S 6 16.09 Fair CLR 25 15 54% 26 76.48 0.0
05 12:15 E 7 16.09 Fair CLR 23 15 61% 76.45 0.0
05 11:55 SE 7 16.09 Fair CLR 23 14 57% 76.48 0.0
05 11:35 E 9 16.09 Fair CLR 23 14 57% 76.48 0.0
05 11:15 E 9 16.09 Fair CLR 23 15 61% 76.48 0.0
05 10:55 E 9 16.09 Fair CLR 22 15 65% 76.48 0.0
05 10:35 E 6 16.09 Fair CLR 21 15 69% 76.48 0.0
05 10:15 SE 11 16.09 Fair CLR 21 15 69% 76.48 0.0
05 09:55 SE 9 16.09 Fair CLR 21 15 69% 76.45 0.0
05 09:35 E 7 16.09 Fair CLR 20 16 78% 76.45 0.0
05 09:15 SE 7 16.09 Partly Cloudy SCT036 20 16 78% 76.45 0.0
05 08:55 SE 7 16.09 Mostly Cloudy BKN036 19 15 78% 76.45 0.0
05 08:35 SE 7 16.09 Mostly Cloudy BKN036 18 15 83% 76.45 0.0
05 08:15 S 7 16.09 Overcast OVC036 18 15 83% 76.48 0.0
05 07:55 SE 7 16.09 Overcast BKN022 OVC036 18 15 83% 76.45 0.0
05 07:35 SE 11 16.09 Overcast OVC020 18 15 83% 76.43 0.0
05 07:15 E 6 16.09 Overcast OVC016 17 15 88% 76.38 0.0
05 06:55 E 6 16.09 Overcast OVC016 17 15 88% 76.35 0.0
05 06:35 Calm 16.09 Overcast OVC016 17 16 94% 76.35 0.0
05 06:15 Calm 16.09 Overcast OVC016 17 16 94% 76.33 0.0
05 05:55 Calm 16.09 Overcast OVC014 17 16 94% 76.33 0.0
05 05:35 Calm 16.09 Overcast OVC014 17 16 94% 76.33 0.0
05 05:15 Calm 16.09 Overcast OVC012 17 16 94% 76.35 0.0
05 04:55 Calm 16.09 Overcast OVC014 17 16 94% 76.35 0.0
05 04:35 Calm 16.09 Overcast OVC014 17 16 94% 76.35 0.0
05 04:15 Calm 16.09 Overcast OVC012 17 16 94% 76.35 0.0
05 03:55 Calm 16.09 Overcast BKN007 OVC012 17 16 94% 76.35 0.0
05 03:35 Calm 16.09 Overcast OVC007 17 16 94% 76.35 0.0
05 03:15 Calm 16.09 Overcast OVC005 17 17 100% 76.33 0.0
05 02:55 E 6 16.09 Overcast OVC005 18 17 94% 76.33 0.0
05 02:35 Calm 11.27 Overcast OVC005 17 17 100% 76.33 0.0
05 02:15 Calm 8.05 Fog/Mist OVC005 18 17 94% 76.3 0.0
05 01:55 Calm 16.09 Overcast OVC007 18 17 94% 76.3 0.0
05 01:35 E 6 16.09 Overcast OVC007 18 17 94% 76.3 0.0
05 01:15 Calm 16.09 Overcast OVC007 18 17 94% 76.33 0.0
05 00:55 E 6 16.09 Overcast OVC007 18 17 94% 76.3 0.0
05 00:35 Calm 16.09 Overcast OVC007 18 17 94% 76.3 0.0
05 00:15 Calm 16.09 Overcast OVC010 18 17 94% 76.3 0.0
04 23:55 SE 7 16.09 Overcast OVC010 18 17 94% 76.28 0.0
04 23:35 E 6 16.09 Overcast OVC008 18 17 94% 76.28 0.0
04 23:15 E 9 16.09 Overcast OVC008 18 17 94% 76.28 0.0
04 22:55 SE 7 16.09 Overcast BKN010 OVC013 19 17 88% 76.28 0.0
04 22:35 Calm 16.09 Overcast OVC008 19 17 88% 76.28 0.0
04 22:15 SE 7 16.09 Overcast OVC010 19 18 94% 76.28 0.0
04 21:55 E 6 16.09 Overcast OVC007 19 18 94% 76.28 0.0
04 21:35 E 9 16.09 Overcast OVC007 20 18 88% 76.28 0.0
04 21:15 Calm 16.09 Overcast OVC005 20 18 88% 76.28 0.0
04 20:55 E 7 16.09 Overcast OVC005 20 18 88% 76.28 0.0
04 20:35 Calm 16.09 Overcast OVC005 20 19 94% 76.25 0.0
04 20:15 Calm 16.09 Overcast OVC007 20 19 94% 76.23 0.0
04 19:55 Calm 16.09 Overcast OVC007 20 19 94% 76.23 0.0
04 19:35 E 7 16.09 Overcast OVC007 20 19 94% 76.2 0.0
04 19:15 E 9 16.09 Overcast OVC009 21 19 88% 76.2 0.0
04 18:55 E 11 16.09 Overcast OVC011 21 19 88% 76.2 0.0
04 18:35 E 7 16.09 Overcast OVC011 22 20 88% 76.17 0.0
04 18:15 E 13 16.09 Overcast OVC013 22 20 88% 76.15 0.0
04 17:55 E 9 16.09 Overcast OVC013 22 20 88% 76.15 0.0
04 17:35 E 9 16.09 Overcast SCT013 OVC031 22 20 88% 76.15 0.0
04 17:15 Calm 16.09 Overcast SCT013 SCT021 OVC031 22 20 88% 76.12 0.0
04 16:55 SE 9 16.09 Overcast BKN015 OVC021 22 20 88% 76.1 0.0
04 16:35 SE 7 16.09 Overcast BKN015 OVC020 22 20 88% 76.1 0.0
04 16:15 SE 7 16.09 Overcast OVC015 22 20 88% 76.1 0.0
04 15:55 Calm 16.09 Overcast OVC014 22 21 94% 76.1 0.0
04 15:35 Calm 16.09 Overcast BKN012 OVC017 22 20 88% 76.1 0.0
04 15:15 Calm 16.09 Overcast OVC012 23 20 83% 76.1 0.0
04 14:55 Calm 16.09 Overcast OVC008 22 20 88% 76.1 0.0
04 14:35 SE 7 16.09 Overcast OVC008 23 20 83% 76.1 0.0
04 14:15 Calm 16.09 Overcast BKN006 OVC026 22 20 88% 76.1 0.0
04 13:55 E 6 16.09 Overcast OVC004 21 20 94% 76.1 0.0
04 13:35 Calm 16.09 Overcast OVC004 21 20 94% 76.1 0.0
04 13:15 E 7 16.09 Overcast OVC004 21 20 94% 76.1 0.0
04 12:55 E 6 16.09 Overcast OVC004 21 20 94% 76.1 0.0
04 12:35 Calm 16.09 Overcast OVC004 21 20 94% 76.1 0.0
04 12:15 E 6 16.09 Overcast OVC004 21 20 94% 76.1 0.0
04 11:55 SE 6 16.09 Overcast OVC004 20 20 100% 76.1 0.0
04 11:35 SE 6 16.09 Overcast OVC004 20 19 94% 76.1 0.0
04 11:15 SE 7 11.27 Overcast OVC002 20 19 94% 76.1 0.0
04 10:55 E 6 4.83 Fog/Mist OVC002 19 18 94% 76.07 0.0
04 10:35 Calm 4.83 Fog/Mist OVC004 19 18 94% 76.07 0.0
04 10:15 Calm 6.44 Fog/Mist OVC004 19 18 94% 76.1 0.0
04 09:55 SE 6 6.44 Fog/Mist OVC004 18 18 100% 76.1 0.0
04 09:35 SE 9 8.05 Fog/Mist OVC004 18 18 100% 76.07 0.0
04 09:15 SE 7 16.09 Overcast OVC004 18 18 100% 76.07 0.0
04 08:55 SE 7 16.09 Overcast OVC004 18 18 100% 76.07 0.0
04 08:35 SE 9 16.09 Overcast OVC004 18 17 94% 76.07 0.0
04 08:15 SE 9 16.09 Overcast OVC004 18 17 94% 76.05 0.0
04 07:55 S 13 16.09 Overcast OVC004 17 17 100% 76.02 0.0
04 07:35 S 11 11.27 Overcast OVC004 17 17 100% 76.02 0.0
04 07:15 SE 9 6.44 Fog/Mist OVC004 17 17 100% 76.02 0.0
04 06:55 SE 11 3.22 Fog/Mist OVC004 17 17 100% 75.97 0.0
04 06:35 SE 9 4.02 Fog/Mist OVC004 17 17 100% 76 0.0
04 06:15 SE 11 4.83 Fog/Mist OVC004 17 17 100% 76 0.0
04 05:55 SE 9 6.44 Fog/Mist OVC004 17 17 100% 76.02 0.0
04 05:35 SE 15 6.44 Light Drizzle OVC004 17 17 100% 76 0.0
04 05:15 SE 7 8.05 Fog/Mist OVC006 17 17 100% 76.02 0.0
04 04:55 SE 13 16.09 Overcast OVC006 18 17 94% 76.02 0.0
04 04:35 SE 11 16.09 Overcast OVC006 18 17 94% 76.02 0.0
04 04:15 SE 17 16.09 Overcast OVC006 18 17 94% 76.02 0.0
04 03:55 SE 13 16.09 Overcast OVC004 18 17 94% 76.02 0.0
04 03:35 E 9 16.09 Overcast OVC004 18 18 100% 76.02 0.0
04 03:15 E 7 16.09 Overcast OVC004 18 18 100% 76.02 0.0
04 02:55 NE 7 16.09 Overcast OVC004 18 18 100% 76 0.0
04 02:35 Calm 16.09 Overcast OVC006 19 18 94% 76.02 0.0
04 02:15 SE 7 16.09 Overcast OVC006 19 18 94% 76 0.0
04 01:55 SE 9 16.09 Thunderstorm in Vicinity OVC006 19 19 100% 76.02 0.0
04 01:35 SE 7 16.09 Overcast OVC006 19 19 100% 76.02 0.0
04 01:15 S 6 16.09 Overcast OVC006 19 19 100% 76.05 0.0
04 00:55 SE 11 16.09 Overcast OVC006 19 19 100% 76 0.0
04 00:35 SE 11 16.09 Thunderstorm in Vicinity OVC004 19 19 100% 76 0.0
04 00:10 SE 9 16.09 Overcast OVC004 19 19 100% 76.02 0.0
03 23:55 SE 9 16.09 Overcast OVC004 19 19 100% 76.05 0.0
03 23:15 SE 9 16.09 Overcast OVC006 19 19 100% 76.05 0.0
03 22:55 SE 13 16.09 Thunderstorm BKN006 BKN014 OVC070 19 18 94% 76.07 0.0 0.51
03 22:35 SE 13 16.09 Heavy Rain OVC006 20 18 88% 76.1 0.0
03 22:15 SE 9 16.09 Overcast OVC008 20 18 88% 76.1 0.0
03 21:55 SE 17 16.09 Light Rain OVC008 20 18 88% 76.07 0.0
03 21:35 SE 11 16.09 Overcast OVC008 20 18 88% 76.07 0.0
03 21:15 SE 9 16.09 Overcast OVC008 20 18 88% 76.07 0.0
03 20:55 SE 15 16.09 Overcast OVC008 20 18 88% 76.07 0.0
03 20:35 SE 13 16.09 Overcast OVC008 20 18 88% 76.07 0.0
03 20:15 SE 15 16.09 Overcast OVC010 21 18 83% 76.07 0.0
03 19:55 SE 9 16.09 Overcast OVC010 21 18 83% 76.07 0.0
03 19:35 SE 11 16.09 Overcast OVC012 21 19 88% 76.07 0.0
03 19:15 S 13 16.09 Overcast OVC012 21 19 88% 76.07 0.0
03 18:55 S 17 16.09 Mostly Cloudy BKN014 21 19 88% 76.07 0.0
03 18:35 S 11 16.09 Fair CLR 22 19 83% 76.05 0.0
03 18:15 S 17 16.09 Partly Cloudy SCT085 23 19 78% 76.05 0.0
03 17:55 S 13 16.09 Mostly Cloudy BKN085 23 20 83% 76.05 0.0
03 17:35 S 15 16.09 Mostly Cloudy BKN085 BKN110 24 20 78% 24 76.02 0.0
03 17:15 S 15 16.09 Mostly Cloudy BKN085 25 20 74% 26 76.02 0.0
03 16:55 SE 15 16.09 Mostly Cloudy BKN075 BKN090 26 19 65% 27 75.97 0.0
03 16:35 S 11 16.09 Overcast OVC075 26 19 65% 27 76 0.0
03 16:15 SW 9 16.09 Overcast OVC065 26 19 65% 27 76 0.0
03 15:55 S 11 16.09 Overcast BKN065 OVC075 27 18 58% 28 76.02 0.0
03 15:35 SE 7 16.09 Overcast OVC060 26 18 61% 27 76.02 0.0
03 15:15 S 6 16.09 Overcast BKN060 OVC070 25 18 65% 26 76.02 0.0
03 14:55 S 11 16.09 Partly Cloudy SCT060 25 18 65% 26 76.02 0.0
03 14:35 SE 7 16.09 Fair CLR 25 18 65% 26 76.05 0.0
03 14:15 E 7 16.09 Fair CLR 25 18 65% 26 76.02 0.0
03 13:55 S 13 16.09 Fair CLR 23 18 74% 76.05 0.0
03 13:35 SE 9 16.09 Fair CLR 23 18 74% 76.05 0.0
03 13:15 SE 9 16.09 Partly Cloudy SCT013 SCT070 22 18 78% 76.07 0.0
03 12:55 SE 15 16.09 Mostly Cloudy BKN015 BKN070 21 18 83% 76.1 0.0
03 12:35 SE 13 16.09 Mostly Cloudy BKN017 20 17 83% 76.1 0.0
03 12:15 SE 11 16.09 Overcast SCT010 BKN019 OVC027 20 17 83% 76.1 0.0
03 11:55 E 9 16.09 Overcast SCT010 BKN022 OVC033 18 17 94% 76.15 0.0 0.33
03 11:35 S 6 16.09 Overcast SCT014 BKN020 OVC043 18 17 94% 76.17 0.0 0.33
03 11:15 Calm 2.01 Heavy Rain BKN013 OVC022 17 16 94% 76.17 0.0 0.33
03 10:55 S 7 11.27 Rain SCT022 BKN031 OVC039 18 15 83% 76.17 0.0
03 10:35 Calm 16.09 Overcast SCT021 BKN035 OVC046 18 15 83% 76.17 0.0
03 10:15 SE 6 16.09 Thunderstorm Light Rain BKN030 BKN047 OVC060 18 15 83% 76.17 0.0
03 09:55 SE 7 16.09 Light Rain SCT028 SCT050 OVC060 19 15 78% 76.17 0.0
03 09:35 SE 9 16.09 Overcast OVC060 19 15 78% 76.15 0.0
03 09:15 E 11 16.09 Mostly Cloudy SCT031 BKN050 19 14 73% 76.12 0.0
03 08:55 SE 11 16.09 Partly Cloudy SCT029 SCT080 SCT090 18 14 78% 76.15 0.0
03 08:35 SE 7 16.09 Mostly Cloudy SCT029 BKN080 18 14 78% 76.15 0.0
03 08:15 SE 9 16.09 Partly Cloudy SCT080 18 13 73% 76.15 0.0
03 07:55 E 7 16.09 Mostly Cloudy SCT060 BKN080 17 13 77% 76.1 0.0
03 07:35 SE 11 16.09 Overcast SCT060 OVC080 17 14 83% 76.12 0.0
03 07:15 SE 7 16.09 Mostly Cloudy BKN080 16 14 88% 76.15 0.0
03 06:55 SE 6 16.09 Partly Cloudy SCT080 16 14 88% 76.15 0.0
03 06:35 SE 6 16.09 Fair CLR 16 14 88% 76.1 0.0
03 06:15 Calm 16.09 Fair CLR 15 14 94% 76.1 0.0
03 05:55 Calm 16.09 Fair CLR 15 13 88% 76.1 0.0
03 05:35 Calm 16.09 Fair CLR 15 14 94% 76.07 0.0
03 05:15 Calm 16.09 Fair CLR 15 13 88% 76.1 0.0
03 04:55 Calm 16.09 Fair CLR 15 13 88% 76.1 0.0
03 04:35 Calm 16.09 Fair CLR 15 13 88% 76.1 0.0
03 04:15 Calm 16.09 Fair CLR 15 13 88% 76.1 0.0
03 03:55 Calm 16.09 Fair CLR 15 13 88% 76.1 0.0
Date Time (cdt) Wind (kph) Vis. (km) Weather Sky Cond. Air Dwpt Max. Min. Relative Humidity Wind Chill (°C) Heat Index (°C) altimeter (cm) sea level (mb) 1 hr 3 hr 6 hr
6 hour
Temperature (ºC) Pressure Precipitation (cm)